CCA135 EGKK-ZBAD
Flight info
| Callsign | CCA135 |
|---|---|
| Flight time | N/A |
| Altitude | 35000 |
| Route | ODVIK Y311 DVR L9 KONAN UL607 KOK M150 PITES DCT NOMBO Y161 RIDAR Z98 WLD T702 OLETU/N0490F370 T702 BADIT DCT SASAL DCT MAVIR DCT NEKUL DCT PETOS DCT NEDSI T343 UDROS UM859 KARDE UN644 ROLIN N644 LAGAS M747 SUBUT/N0491F390 T916 BALUN/K0906F390 T916 PIGAL M610 RULAD/K0891S1190 A343 POSOT B215 WUR/K0895S1250 B215 FKG W188 LIKMI W270 DKO W64 ELAPU ELAPU5L |
| Aircraft | A359/H-SDE2E3GHIJ3J4J5LM1ORWXY/LB1D1 |
Departure
| Time | 2026-05-07 19:06 |
|---|---|
| Airport | London Gatwick Airport (EGKK) |
Arrival
| Time | N/A |
|---|---|
| Airport | Beijing Daxing International Airport (ZBAD) |
| Time | Latitude | Longitude | Altitude | Speed | Heading |
|---|---|---|---|---|---|
| 2026-05-07 18:38 | 51.15992 | -0.17999 | 210 ft | 0 kts | 77° |
| 2026-05-07 18:49 | 51.15992 | -0.18004 | 210 ft | 3 kts | 77° |
| 2026-05-07 18:49 | 51.15986 | -0.18044 | 210 ft | 4 kts | 80° |
| 2026-05-07 18:49 | 51.15985 | -0.18086 | 210 ft | 4 kts | 106° |
| 2026-05-07 18:49 | 51.15997 | -0.18122 | 210 ft | 4 kts | 140° |
| 2026-05-07 18:50 | 51.16014 | -0.18137 | 210 ft | 0 kts | 168° |
| 2026-05-07 18:54 | 51.16008 | -0.18135 | 210 ft | 2 kts | 167° |
| 2026-05-07 18:54 | 51.16006 | -0.18134 | 210 ft | 0 kts | 167° |
| 2026-05-07 18:54 | 51.16005 | -0.18134 | 210 ft | 0 kts | 167° |
| 2026-05-07 18:55 | 51.16002 | -0.18133 | 210 ft | 1 kts | 167° |
| 2026-05-07 18:55 | 51.15976 | -0.18124 | 210 ft | 6 kts | 167° |
| 2026-05-07 18:55 | 51.15925 | -0.18106 | 210 ft | 9 kts | 167° |
| 2026-05-07 18:55 | 51.15859 | -0.18083 | 210 ft | 11 kts | 168° |
| 2026-05-07 18:56 | 51.15780 | -0.18056 | 210 ft | 13 kts | 168° |
| 2026-05-07 18:56 | 51.15697 | -0.18055 | 210 ft | 11 kts | 218° |
| 2026-05-07 18:56 | 51.15669 | -0.18171 | 210 ft | 12 kts | 255° |
| 2026-05-07 18:56 | 51.15650 | -0.18312 | 210 ft | 14 kts | 258° |
| 2026-05-07 18:57 | 51.15628 | -0.18472 | 210 ft | 16 kts | 257° |
| 2026-05-07 18:57 | 51.15604 | -0.18648 | 210 ft | 17 kts | 257° |
| 2026-05-07 18:57 | 51.15560 | -0.18817 | 210 ft | 14 kts | 206° |
| 2026-05-07 18:57 | 51.15468 | -0.18798 | 210 ft | 14 kts | 168° |
| 2026-05-07 18:58 | 51.15365 | -0.18763 | 210 ft | 17 kts | 167° |
| 2026-05-07 18:58 | 51.15240 | -0.18718 | 210 ft | 20 kts | 167° |
| 2026-05-07 18:58 | 51.15164 | -0.18693 | 210 ft | 9 kts | 175° |
| 2026-05-07 18:58 | 51.15124 | -0.18764 | 209 ft | 11 kts | 259° |
| 2026-05-07 18:59 | 51.15107 | -0.18900 | 209 ft | 14 kts | 257° |
| 2026-05-07 18:59 | 51.15084 | -0.19067 | 210 ft | 17 kts | 258° |
| 2026-05-07 18:59 | 51.15056 | -0.19267 | 210 ft | 20 kts | 257° |
| 2026-05-07 18:59 | 51.15025 | -0.19495 | 210 ft | 22 kts | 257° |
| 2026-05-07 19:00 | 51.14990 | -0.19750 | 211 ft | 25 kts | 257° |
| 2026-05-07 19:00 | 51.14951 | -0.20029 | 209 ft | 27 kts | 257° |
| 2026-05-07 19:00 | 51.14910 | -0.20332 | 209 ft | 29 kts | 257° |
| 2026-05-07 19:00 | 51.14865 | -0.20651 | 209 ft | 30 kts | 257° |
| 2026-05-07 19:01 | 51.14825 | -0.20942 | 210 ft | 8 kts | 257° |
| 2026-05-07 19:01 | 51.14824 | -0.20951 | 210 ft | 1 kts | 257° |
| 2026-05-07 19:01 | 51.14820 | -0.20980 | 210 ft | 5 kts | 257° |
| 2026-05-07 19:01 | 51.14809 | -0.21062 | 210 ft | 10 kts | 257° |
| 2026-05-07 19:02 | 51.14780 | -0.21202 | 210 ft | 16 kts | 254° |
| 2026-05-07 19:02 | 51.14735 | -0.21381 | 210 ft | 18 kts | 208° |
| 2026-05-07 19:02 | 51.14619 | -0.21330 | 210 ft | 9 kts | 162° |
| 2026-05-07 19:02 | 51.14617 | -0.21328 | 210 ft | 0 kts | 162° |
| 2026-05-07 19:04 | 51.14589 | -0.21314 | 209 ft | 9 kts | 162° |
| 2026-05-07 19:04 | 51.14525 | -0.21220 | 208 ft | 17 kts | 113° |
| 2026-05-07 19:04 | 51.14536 | -0.21054 | 210 ft | 0 kts | 77° |
| 2026-05-07 19:05 | 51.14547 | -0.20972 | 210 ft | 29 kts | 77° |
| 2026-05-07 19:05 | 51.14651 | -0.20220 | 212 ft | 109 kts | 77° |
| 2026-05-07 19:05 | 51.14866 | -0.18668 | 214 ft | 176 kts | 78° |
| 2026-05-07 19:06 | 51.15142 | -0.16662 | 838 ft | 190 kts | 78° |
| 2026-05-07 19:06 | 51.15704 | -0.12738 | 1858 ft | 187 kts | 78° |
| 2026-05-07 19:06 | 51.15983 | -0.10665 | 2058 ft | 200 kts | 78° |
| 2026-05-07 19:07 | 51.16284 | -0.08420 | 2284 ft | 212 kts | 78° |
| 2026-05-07 19:07 | 51.16605 | -0.06046 | 2498 ft | 227 kts | 78° |
| 2026-05-07 19:07 | 51.16875 | -0.03488 | 2720 ft | 242 kts | 87° |
| 2026-05-07 19:07 | 51.16879 | -0.00725 | 3015 ft | 254 kts | 92° |
| 2026-05-07 19:08 | 51.16815 | 0.02134 | 3452 ft | 260 kts | 92° |
| 2026-05-07 19:08 | 51.16753 | 0.05049 | 3928 ft | 265 kts | 92° |
| 2026-05-07 19:08 | 51.16695 | 0.07971 | 4412 ft | 268 kts | 92° |
| 2026-05-07 19:08 | 51.16638 | 0.10959 | 4900 ft | 271 kts | 92° |
| 2026-05-07 19:09 | 51.16580 | 0.13988 | 5389 ft | 274 kts | 92° |
| 2026-05-07 19:09 | 51.16531 | 0.17054 | 5811 ft | 278 kts | 91° |
| 2026-05-07 19:09 | 51.16538 | 0.20148 | 5941 ft | 280 kts | 90° |
| 2026-05-07 19:09 | 51.16555 | 0.23243 | 5942 ft | 280 kts | 89° |
| 2026-05-07 19:10 | 51.16569 | 0.26316 | 5945 ft | 280 kts | 89° |
| 2026-05-07 19:10 | 51.16578 | 0.29371 | 5945 ft | 280 kts | 90° |
| 2026-05-07 19:10 | 51.16586 | 0.32509 | 5947 ft | 284 kts | 90° |
| 2026-05-07 19:10 | 51.16596 | 0.35660 | 5951 ft | 284 kts | 90° |
| 2026-05-07 19:11 | 51.16599 | 0.38816 | 5986 ft | 285 kts | 90° |
| 2026-05-07 19:11 | 51.16598 | 0.41956 | 5999 ft | 285 kts | 90° |
| 2026-05-07 19:11 | 51.16598 | 0.45127 | 6016 ft | 285 kts | 90° |
| 2026-05-07 19:11 | 51.16597 | 0.48253 | 6245 ft | 285 kts | 90° |
| 2026-05-07 19:12 | 51.16596 | 0.51446 | 6707 ft | 288 kts | 90° |
| 2026-05-07 19:12 | 51.16594 | 0.54630 | 7307 ft | 288 kts | 90° |
| 2026-05-07 19:12 | 51.16592 | 0.57836 | 7884 ft | 289 kts | 90° |
| 2026-05-07 19:12 | 51.16570 | 0.61018 | 8425 ft | 292 kts | 91° |
| 2026-05-07 19:13 | 51.16533 | 0.64270 | 8985 ft | 294 kts | 91° |
| 2026-05-07 19:13 | 51.16495 | 0.67555 | 9536 ft | 296 kts | 91° |
| 2026-05-07 19:13 | 51.16455 | 0.70854 | 10085 ft | 299 kts | 91° |
| 2026-05-07 19:13 | 51.16413 | 0.74237 | 10409 ft | 310 kts | 91° |
| 2026-05-07 19:14 | 51.16370 | 0.77692 | 10654 ft | 323 kts | 91° |
| 2026-05-07 19:14 | 51.16323 | 0.81346 | 10923 ft | 335 kts | 91° |
| 2026-05-07 19:14 | 51.16274 | 0.85130 | 11201 ft | 346 kts | 91° |
| 2026-05-07 19:14 | 51.16225 | 0.88984 | 11463 ft | 357 kts | 91° |
| 2026-05-07 19:15 | 51.16172 | 0.93004 | 11710 ft | 367 kts | 91° |
| 2026-05-07 19:15 | 51.16115 | 0.97151 | 11978 ft | 377 kts | 91° |
| 2026-05-07 19:15 | 51.16057 | 1.01356 | 12226 ft | 386 kts | 91° |
| 2026-05-07 19:15 | 51.15997 | 1.05649 | 12538 ft | 392 kts | 91° |
| 2026-05-07 19:16 | 51.15935 | 1.10029 | 12904 ft | 396 kts | 91° |
| 2026-05-07 19:16 | 51.15873 | 1.14428 | 13298 ft | 399 kts | 91° |
| 2026-05-07 19:16 | 51.15809 | 1.18878 | 13688 ft | 402 kts | 91° |
| 2026-05-07 19:16 | 51.15744 | 1.23336 | 14075 ft | 405 kts | 91° |
| 2026-05-07 19:17 | 51.15678 | 1.27847 | 14466 ft | 407 kts | 91° |
| 2026-05-07 19:17 | 51.15611 | 1.32340 | 14855 ft | 409 kts | 91° |
| 2026-05-07 19:17 | 51.15544 | 1.36885 | 15258 ft | 412 kts | 91° |
| 2026-05-07 19:17 | 51.15475 | 1.41489 | 15654 ft | 414 kts | 91° |
| 2026-05-07 19:18 | 51.15406 | 1.46075 | 16055 ft | 416 kts | 91° |
| 2026-05-07 19:18 | 51.15337 | 1.50644 | 16429 ft | 418 kts | 91° |
| 2026-05-07 19:18 | 51.15265 | 1.55295 | 16798 ft | 420 kts | 91° |
| 2026-05-07 19:18 | 51.15193 | 1.59970 | 17171 ft | 422 kts | 91° |
| 2026-05-07 19:19 | 51.15119 | 1.64670 | 17533 ft | 424 kts | 91° |
| 2026-05-07 19:19 | 51.15044 | 1.69380 | 17882 ft | 426 kts | 91° |
| 2026-05-07 19:19 | 51.14968 | 1.74130 | 18221 ft | 429 kts | 91° |
| 2026-05-07 19:19 | 51.14891 | 1.78880 | 18568 ft | 431 kts | 91° |
| 2026-05-07 19:20 | 51.14711 | 1.83603 | 18876 ft | 433 kts | 97° |
| 2026-05-07 19:20 | 51.14182 | 1.88339 | 19200 ft | 434 kts | 105° |
| 2026-05-07 19:20 | 51.13242 | 1.92932 | 19534 ft | 436 kts | 110° |
| 2026-05-07 19:20 | 51.12151 | 1.97411 | 19822 ft | 438 kts | 113° |
| 2026-05-07 19:21 | 51.10955 | 2.01894 | 20109 ft | 440 kts | 114° |
| 2026-05-07 19:21 | 51.09707 | 2.06361 | 20422 ft | 442 kts | 115° |
| 2026-05-07 19:21 | 51.08438 | 2.10814 | 20726 ft | 443 kts | 115° |
| 2026-05-07 19:21 | 51.07157 | 2.15302 | 21023 ft | 445 kts | 115° |
| 2026-05-07 19:22 | 51.05884 | 2.19771 | 21315 ft | 447 kts | 115° |
| 2026-05-07 19:22 | 51.04603 | 2.24287 | 21599 ft | 449 kts | 115° |
| 2026-05-07 19:22 | 51.03315 | 2.28842 | 21886 ft | 451 kts | 115° |
| 2026-05-07 19:22 | 51.02043 | 2.33339 | 22164 ft | 453 kts | 115° |
| 2026-05-07 19:23 | 51.00729 | 2.37988 | 22445 ft | 455 kts | 115° |
| 2026-05-07 19:23 | 50.99431 | 2.42569 | 22724 ft | 456 kts | 115° |
| 2026-05-07 19:23 | 50.98127 | 2.47163 | 22999 ft | 458 kts | 115° |
| 2026-05-07 19:23 | 50.96814 | 2.51776 | 23250 ft | 460 kts | 115° |
| 2026-05-07 19:24 | 50.95493 | 2.56409 | 23523 ft | 462 kts | 115° |
| 2026-05-07 19:24 | 50.94181 | 2.61001 | 23782 ft | 464 kts | 115° |
| 2026-05-07 19:24 | 50.92839 | 2.65690 | 24041 ft | 465 kts | 115° |
| 2026-05-07 19:24 | 50.91491 | 2.70390 | 24289 ft | 467 kts | 115° |
| 2026-05-07 19:25 | 50.90155 | 2.75036 | 24541 ft | 469 kts | 115° |
| 2026-05-07 19:25 | 50.88794 | 2.79760 | 24796 ft | 470 kts | 115° |
| 2026-05-07 19:25 | 50.87427 | 2.84498 | 25034 ft | 472 kts | 115° |
| 2026-05-07 19:25 | 50.86070 | 2.89190 | 25263 ft | 474 kts | 115° |
| 2026-05-07 19:26 | 50.84689 | 2.93959 | 25515 ft | 475 kts | 115° |
| 2026-05-07 19:26 | 50.83773 | 2.97116 | 25665 ft | 477 kts | 115° |
| 2026-05-07 19:26 | 50.82386 | 3.01887 | 25891 ft | 478 kts | 115° |
| 2026-05-07 19:26 | 50.80991 | 3.06674 | 26131 ft | 480 kts | 115° |
| 2026-05-07 19:27 | 50.79603 | 3.11432 | 26365 ft | 482 kts | 115° |
| 2026-05-07 19:27 | 50.78197 | 3.16238 | 26617 ft | 483 kts | 115° |
| 2026-05-07 19:27 | 50.76792 | 3.21034 | 26813 ft | 482 kts | 115° |
| 2026-05-07 19:27 | 50.75383 | 3.25834 | 26945 ft | 480 kts | 115° |
| 2026-05-07 19:28 | 50.73974 | 3.30624 | 26997 ft | 479 kts | 115° |
| 2026-05-07 19:28 | 50.72569 | 3.35389 | 27019 ft | 480 kts | 115° |
| 2026-05-07 19:28 | 50.71156 | 3.40175 | 27036 ft | 480 kts | 115° |
| 2026-05-07 19:28 | 50.69739 | 3.44962 | 27051 ft | 481 kts | 115° |
| 2026-05-07 19:29 | 50.68318 | 3.49751 | 27066 ft | 481 kts | 115° |
| 2026-05-07 19:29 | 50.66914 | 3.54478 | 27080 ft | 482 kts | 115° |
| 2026-05-07 19:29 | 50.65481 | 3.59291 | 27095 ft | 482 kts | 115° |
| 2026-05-07 19:29 | 50.64075 | 3.64005 | 27124 ft | 484 kts | 115° |
| 2026-05-07 19:30 | 50.62641 | 3.68808 | 27308 ft | 485 kts | 115° |
| 2026-05-07 19:30 | 50.61232 | 3.73512 | 27604 ft | 483 kts | 115° |
| 2026-05-07 19:30 | 50.59806 | 3.78267 | 27680 ft | 484 kts | 115° |
| 2026-05-07 19:30 | 50.58358 | 3.83090 | 27830 ft | 487 kts | 115° |
| 2026-05-07 19:31 | 50.56902 | 3.87921 | 28102 ft | 487 kts | 115° |
| 2026-05-07 19:31 | 50.55451 | 3.92726 | 28337 ft | 487 kts | 115° |
| 2026-05-07 19:31 | 50.54001 | 3.97513 | 28547 ft | 489 kts | 115° |
| 2026-05-07 19:31 | 50.52538 | 4.02337 | 28743 ft | 490 kts | 115° |
| 2026-05-07 19:32 | 50.51070 | 4.07172 | 28937 ft | 491 kts | 115° |
| 2026-05-07 19:32 | 50.49583 | 4.12057 | 29121 ft | 493 kts | 115° |
| 2026-05-07 19:32 | 50.48097 | 4.16930 | 29301 ft | 494 kts | 116° |
| 2026-05-07 19:32 | 50.46621 | 4.21762 | 29488 ft | 496 kts | 116° |
| 2026-05-07 19:33 | 50.45818 | 4.24387 | 29560 ft | 496 kts | 116° |
| 2026-05-07 19:33 | 50.44335 | 4.29235 | 29724 ft | 497 kts | 116° |
| 2026-05-07 19:33 | 50.42853 | 4.34071 | 29782 ft | 496 kts | 116° |
| 2026-05-07 19:34 | 50.39860 | 4.43782 | 29787 ft | 496 kts | 116° |
| 2026-05-07 19:34 | 50.36816 | 4.53621 | 29817 ft | 505 kts | 116° |
| 2026-05-07 19:35 | 50.33727 | 4.63566 | 30166 ft | 507 kts | 116° |
| 2026-05-07 19:35 | 50.32344 | 4.68009 | 30422 ft | 506 kts | 116° |
| 2026-05-07 19:36 | 50.31180 | 4.71742 | 30610 ft | 506 kts | 116° |
| 2026-05-07 19:36 | 50.29652 | 4.76636 | 30865 ft | 505 kts | 116° |
| 2026-05-07 19:36 | 50.28103 | 4.81584 | 31138 ft | 505 kts | 116° |
| 2026-05-07 19:36 | 50.26550 | 4.86536 | 31407 ft | 504 kts | 117° |
| 2026-05-07 19:37 | 50.25004 | 4.91455 | 31638 ft | 504 kts | 117° |
| 2026-05-07 19:37 | 50.23457 | 4.96368 | 31902 ft | 503 kts | 117° |
| 2026-05-07 19:37 | 50.21907 | 5.01281 | 32134 ft | 502 kts | 117° |
| 2026-05-07 19:37 | 50.20382 | 5.06105 | 32349 ft | 502 kts | 117° |
| 2026-05-07 19:38 | 50.18833 | 5.10996 | 32583 ft | 502 kts | 117° |
| 2026-05-07 19:38 | 50.17281 | 5.15885 | 32809 ft | 501 kts | 117° |
| 2026-05-07 19:38 | 50.15736 | 5.20744 | 33025 ft | 501 kts | 117° |
| 2026-05-07 19:38 | 50.14183 | 5.25616 | 33243 ft | 500 kts | 117° |
| 2026-05-07 19:39 | 50.12630 | 5.30481 | 33455 ft | 500 kts | 117° |
| 2026-05-07 19:39 | 50.11075 | 5.35342 | 33642 ft | 500 kts | 117° |
| 2026-05-07 19:39 | 50.09539 | 5.40133 | 33815 ft | 500 kts | 117° |
| 2026-05-07 19:39 | 50.07980 | 5.44988 | 33981 ft | 500 kts | 117° |
| 2026-05-07 19:40 | 50.06421 | 5.49833 | 34168 ft | 500 kts | 117° |
| 2026-05-07 19:40 | 50.04856 | 5.54688 | 34366 ft | 499 kts | 117° |
| 2026-05-07 19:40 | 50.03300 | 5.59505 | 34556 ft | 499 kts | 117° |
| 2026-05-07 19:40 | 50.01730 | 5.64358 | 34742 ft | 499 kts | 117° |
| 2026-05-07 19:41 | 50.00171 | 5.69165 | 34902 ft | 499 kts | 117° |
| 2026-05-07 19:41 | 49.98623 | 5.73931 | 35002 ft | 501 kts | 117° |
| 2026-05-07 19:41 | 49.95446 | 5.83678 | 34998 ft | 506 kts | 117° |
| 2026-05-07 19:42 | 49.92267 | 5.93399 | 35003 ft | 505 kts | 117° |
| 2026-05-07 19:42 | 49.89081 | 6.03103 | 35004 ft | 504 kts | 117° |
| 2026-05-07 19:43 | 49.85894 | 6.12771 | 35005 ft | 504 kts | 117° |
| 2026-05-07 19:43 | 49.82712 | 6.22387 | 35005 ft | 503 kts | 118° |
| 2026-05-07 19:44 | 49.79502 | 6.32050 | 35004 ft | 503 kts | 118° |
| 2026-05-07 19:44 | 49.76310 | 6.41624 | 35001 ft | 503 kts | 118° |
| 2026-05-07 19:45 | 49.73209 | 6.51350 | 35006 ft | 504 kts | 111° |
| 2026-05-07 19:45 | 49.71169 | 6.61696 | 34999 ft | 503 kts | 105° |
| 2026-05-07 19:46 | 49.69391 | 6.72137 | 35003 ft | 504 kts | 105° |
| 2026-05-07 19:46 | 49.67627 | 6.82631 | 34985 ft | 505 kts | 105° |
| 2026-05-07 19:47 | 49.65828 | 6.93165 | 34996 ft | 506 kts | 105° |
| 2026-05-07 19:47 | 49.64018 | 7.03630 | 35001 ft | 506 kts | 105° |
| 2026-05-07 19:48 | 49.62199 | 7.14066 | 35002 ft | 506 kts | 105° |
| 2026-05-07 19:48 | 49.60364 | 7.24538 | 35000 ft | 505 kts | 105° |
| 2026-05-07 19:49 | 49.58519 | 7.35007 | 35001 ft | 505 kts | 105° |
| 2026-05-07 19:49 | 49.56671 | 7.45428 | 34986 ft | 505 kts | 105° |
| 2026-05-07 19:50 | 49.54821 | 7.55806 | 35001 ft | 504 kts | 105° |
| 2026-05-07 19:50 | 49.52948 | 7.66248 | 35004 ft | 505 kts | 106° |
| 2026-05-07 19:51 | 49.51072 | 7.76647 | 34993 ft | 504 kts | 106° |
| 2026-05-07 19:51 | 49.49196 | 7.86992 | 35004 ft | 504 kts | 106° |
| 2026-05-07 19:52 | 49.47299 | 7.97392 | 35003 ft | 504 kts | 106° |
| 2026-05-07 19:52 | 49.45390 | 8.07794 | 34987 ft | 504 kts | 106° |
| 2026-05-07 19:53 | 49.43473 | 8.18180 | 35003 ft | 504 kts | 106° |
| 2026-05-07 19:53 | 49.41563 | 8.28476 | 35003 ft | 503 kts | 106° |
| 2026-05-07 19:54 | 49.39635 | 8.38810 | 34997 ft | 503 kts | 106° |
| 2026-05-07 19:54 | 49.37707 | 8.49088 | 35000 ft | 503 kts | 106° |
| 2026-05-07 19:55 | 49.35759 | 8.59413 | 35003 ft | 503 kts | 107° |
| 2026-05-07 19:55 | 49.33813 | 8.69674 | 35003 ft | 503 kts | 107° |
| 2026-05-07 19:56 | 49.31843 | 8.80000 | 34997 ft | 503 kts | 107° |
| 2026-05-07 19:56 | 49.29878 | 8.90247 | 35000 ft | 503 kts | 107° |
| 2026-05-07 19:57 | 49.27889 | 9.00563 | 34998 ft | 503 kts | 107° |
| 2026-05-07 19:57 | 49.25908 | 9.10780 | 35000 ft | 504 kts | 107° |
| 2026-05-07 19:58 | 49.23906 | 9.21056 | 35000 ft | 503 kts | 107° |
| 2026-05-07 19:58 | 49.21899 | 9.31296 | 35003 ft | 503 kts | 107° |
| 2026-05-07 19:59 | 49.19878 | 9.41556 | 35003 ft | 503 kts | 107° |
| 2026-05-07 19:59 | 49.17846 | 9.51815 | 35005 ft | 504 kts | 107° |
| 2026-05-07 20:00 | 49.15817 | 9.62010 | 35004 ft | 504 kts | 107° |
| 2026-05-07 20:00 | 49.13760 | 9.72291 | 35002 ft | 505 kts | 107° |
| 2026-05-07 20:01 | 49.11708 | 9.82488 | 35001 ft | 505 kts | 107° |
| 2026-05-07 20:01 | 49.09637 | 9.92729 | 35002 ft | 505 kts | 108° |
| 2026-05-07 20:02 | 49.07474 | 10.02862 | 34999 ft | 505 kts | 113° |
| 2026-05-07 20:02 | 49.03881 | 10.11991 | 35004 ft | 502 kts | 132° |
| 2026-05-07 20:03 | 48.98935 | 10.19513 | 35004 ft | 502 kts | 138° |
| 2026-05-07 20:03 | 48.93816 | 10.26661 | 35003 ft | 502 kts | 139° |
| 2026-05-07 20:04 | 48.88656 | 10.33843 | 35003 ft | 502 kts | 138° |
| 2026-05-07 20:04 | 48.83498 | 10.41071 | 35002 ft | 502 kts | 138° |
| 2026-05-07 20:05 | 48.78540 | 10.48479 | 35005 ft | 503 kts | 134° |
| 2026-05-07 20:05 | 48.73787 | 10.56302 | 35004 ft | 503 kts | 133° |
| 2026-05-07 20:06 | 48.69048 | 10.64058 | 35003 ft | 503 kts | 134° |
| 2026-05-07 20:06 | 48.64248 | 10.71774 | 35004 ft | 502 kts | 133° |
| 2026-05-07 20:07 | 48.60369 | 10.80534 | 34986 ft | 504 kts | 115° |
| 2026-05-07 20:07 | 48.59177 | 10.85512 | 35003 ft | 504 kts | 104° |
| 2026-05-07 20:07 | 48.58576 | 10.90667 | 34996 ft | 504 kts | 95° |
| 2026-05-07 20:08 | 48.58172 | 11.01286 | 34995 ft | 505 kts | 92° |
| 2026-05-07 20:08 | 48.57737 | 11.11816 | 35003 ft | 505 kts | 99° |
| 2026-05-07 20:09 | 48.55858 | 11.22021 | 35001 ft | 504 kts | 109° |
| 2026-05-07 20:10 | 48.52734 | 11.35345 | 35003 ft | 505 kts | 110° |
| 2026-05-07 20:10 | 48.50342 | 11.45307 | 35001 ft | 505 kts | 110° |
| 2026-05-07 20:11 | 48.47968 | 11.55242 | 35003 ft | 505 kts | 110° |
| 2026-05-07 20:11 | 48.46784 | 11.60208 | 35177 ft | 503 kts | 110° |
| 2026-05-07 20:11 | 48.45594 | 11.65186 | 35483 ft | 500 kts | 110° |
| 2026-05-07 20:11 | 48.44411 | 11.70115 | 35738 ft | 498 kts | 110° |
| 2026-05-07 20:12 | 48.43245 | 11.74950 | 35933 ft | 498 kts | 110° |
| 2026-05-07 20:12 | 48.42062 | 11.79845 | 36100 ft | 497 kts | 110° |
| 2026-05-07 20:12 | 48.40875 | 11.84746 | 36275 ft | 497 kts | 110° |
| 2026-05-07 20:12 | 48.39689 | 11.89635 | 36432 ft | 496 kts | 110° |
| 2026-05-07 20:13 | 48.38498 | 11.94533 | 36579 ft | 496 kts | 110° |
| 2026-05-07 20:13 | 48.37308 | 11.99414 | 36714 ft | 496 kts | 110° |
| 2026-05-07 20:13 | 48.36119 | 12.04283 | 36847 ft | 496 kts | 110° |
| 2026-05-07 20:13 | 48.34938 | 12.09109 | 36958 ft | 497 kts | 110° |
| 2026-05-07 20:14 | 48.33741 | 12.13991 | 37000 ft | 499 kts | 110° |
| 2026-05-07 20:14 | 48.31315 | 12.23850 | 37001 ft | 503 kts | 111° |
| 2026-05-07 20:15 | 48.28886 | 12.33679 | 37000 ft | 503 kts | 111° |
| 2026-05-07 20:15 | 48.26443 | 12.43524 | 37000 ft | 502 kts | 111° |
| 2026-05-07 20:16 | 48.23990 | 12.53363 | 37000 ft | 502 kts | 111° |
| 2026-05-07 20:16 | 48.21544 | 12.63139 | 37000 ft | 502 kts | 111° |
| 2026-05-07 20:17 | 48.19093 | 12.72897 | 37000 ft | 502 kts | 111° |
| 2026-05-07 20:17 | 48.16622 | 12.82688 | 37000 ft | 502 kts | 111° |
| 2026-05-07 20:18 | 48.14277 | 12.92570 | 37000 ft | 502 kts | 109° |
| 2026-05-07 20:18 | 48.12113 | 13.02542 | 37000 ft | 503 kts | 108° |
| 2026-05-07 20:19 | 48.09937 | 13.12467 | 37000 ft | 503 kts | 109° |
| 2026-05-07 20:19 | 48.07709 | 13.22405 | 37000 ft | 503 kts | 109° |
| 2026-05-07 20:20 | 48.05497 | 13.32160 | 37003 ft | 503 kts | 109° |
| 2026-05-07 20:20 | 48.03240 | 13.42069 | 37000 ft | 505 kts | 109° |
| 2026-05-07 20:21 | 48.00969 | 13.51991 | 37001 ft | 504 kts | 109° |
| 2026-05-07 20:21 | 47.98681 | 13.61947 | 37000 ft | 503 kts | 109° |
| 2026-05-07 20:22 | 47.96426 | 13.71719 | 37001 ft | 503 kts | 109° |
| 2026-05-07 20:22 | 47.94124 | 13.81642 | 37000 ft | 503 kts | 109° |
| 2026-05-07 20:23 | 47.91831 | 13.91485 | 37000 ft | 503 kts | 109° |
| 2026-05-07 20:23 | 47.89519 | 14.01367 | 37000 ft | 504 kts | 110° |
| 2026-05-07 20:24 | 47.87211 | 14.11186 | 37000 ft | 504 kts | 110° |
| 2026-05-07 20:24 | 47.84880 | 14.21053 | 37000 ft | 504 kts | 110° |
| 2026-05-07 20:25 | 47.82547 | 14.30890 | 36997 ft | 504 kts | 110° |
| 2026-05-07 20:25 | 47.80211 | 14.40691 | 37000 ft | 506 kts | 110° |
| 2026-05-07 20:26 | 47.77839 | 14.50603 | 37001 ft | 507 kts | 110° |
| 2026-05-07 20:26 | 47.75470 | 14.60457 | 37001 ft | 506 kts | 110° |
| 2026-05-07 20:27 | 47.73095 | 14.70292 | 36998 ft | 504 kts | 110° |
| 2026-05-07 20:27 | 47.70723 | 14.80072 | 37002 ft | 506 kts | 110° |
| 2026-05-07 20:28 | 47.68328 | 14.89899 | 37002 ft | 506 kts | 110° |
| 2026-05-07 20:28 | 47.66014 | 14.99355 | 36999 ft | 505 kts | 110° |
| 2026-05-07 20:29 | 47.63612 | 15.09126 | 36995 ft | 505 kts | 110° |
| 2026-05-07 20:29 | 47.61186 | 15.18953 | 37000 ft | 510 kts | 110° |
| 2026-05-07 20:30 | 47.58728 | 15.28869 | 37000 ft | 512 kts | 110° |
| 2026-05-07 20:30 | 47.56284 | 15.38684 | 36999 ft | 507 kts | 110° |
| 2026-05-07 20:31 | 47.53833 | 15.48484 | 37002 ft | 508 kts | 111° |
| 2026-05-07 20:31 | 47.51389 | 15.58210 | 36999 ft | 505 kts | 111° |
| 2026-05-07 20:32 | 47.48920 | 15.67997 | 37000 ft | 506 kts | 111° |
| 2026-05-07 20:32 | 47.46463 | 15.77698 | 37000 ft | 506 kts | 111° |
| 2026-05-07 20:33 | 47.43985 | 15.87433 | 37000 ft | 505 kts | 111° |
| 2026-05-07 20:33 | 47.41495 | 15.97177 | 37001 ft | 504 kts | 111° |
| 2026-05-07 20:34 | 47.39011 | 16.06859 | 37000 ft | 503 kts | 111° |